createdAt,value
2022-12-04T00:02:01.001Z,8.77
2022-12-04T00:04:29.553Z,7.75
2022-12-04T00:06:59.282Z,7.13
2022-12-04T00:09:27.835Z,8.70
2022-12-04T00:11:56.338Z,8.20
2022-12-04T00:14:24.889Z,6.80
2022-12-04T00:16:53.530Z,6.82
2022-12-04T00:19:22.060Z,8.25
2022-12-04T00:21:51.495Z,7.03
2022-12-04T00:24:21.034Z,8.60
2022-12-04T00:26:49.593Z,8.02
2022-12-04T00:29:18.097Z,7.05
2022-12-04T00:31:46.636Z,8.02
2022-12-04T00:34:15.293Z,7.25
2022-12-04T00:36:43.850Z,8.00
2022-12-04T00:39:12.338Z,8.55
2022-12-04T00:41:41.916Z,7.60
2022-12-04T00:44:10.463Z,7.82
2022-12-04T00:46:38.937Z,6.70
2022-12-04T00:49:07.451Z,7.35
2022-12-04T00:51:35.732Z,7.88
2022-12-04T00:54:04.247Z,8.43
2022-12-04T00:56:32.763Z,7.32
2022-12-04T00:59:02.787Z,7.00
2022-12-04T01:01:31.781Z,7.93
2022-12-04T01:04:00.476Z,8.00
2022-12-04T01:06:31.555Z,7.75
2022-12-04T01:09:01.752Z,8.02
2022-12-04T01:11:31.031Z,8.38
2022-12-04T01:14:01.278Z,7.53
2022-12-04T01:16:32.579Z,8.15
2022-12-04T01:19:01.479Z,8.20
2022-12-04T01:21:29.817Z,8.35
2022-12-04T01:23:58.996Z,7.57
2022-12-04T01:26:27.667Z,7.32
2022-12-04T01:28:56.296Z,7.53
2022-12-04T01:31:27.852Z,8.02
2022-12-04T01:33:56.804Z,7.38
2022-12-04T01:36:28.859Z,7.63
2022-12-04T01:38:57.838Z,7.93
2022-12-04T01:41:28.858Z,6.78
2022-12-04T01:44:13.865Z,7.35
2022-12-04T01:46:45.301Z,7.85
2022-12-04T01:49:19.949Z,8.23
2022-12-04T01:51:52.728Z,8.00
2022-12-04T01:54:28.327Z,8.00
2022-12-04T01:57:02.508Z,8.43
2022-12-04T01:59:36.344Z,8.10
2022-12-04T02:02:10.015Z,8.05
2022-12-04T02:04:40.395Z,7.53
2022-12-04T02:07:09.117Z,7.57
2022-12-04T02:09:40.364Z,7.68
2022-12-04T02:12:21.481Z,7.30
2022-12-04T02:15:04.947Z,8.40
2022-12-04T02:17:42.457Z,8.05
2022-12-04T02:20:30.798Z,8.50
2022-12-04T02:23:30.440Z,8.60
2022-12-04T02:26:15.549Z,6.65
2022-12-04T02:28:54.050Z,7.05
2022-12-04T02:31:29.492Z,8.68
2022-12-04T02:34:05.481Z,7.80
2022-12-04T02:36:43.975Z,8.20
2022-12-04T02:39:20.383Z,8.55
2022-12-04T02:41:56.752Z,8.95
2022-12-04T02:44:31.775Z,7.90
2022-12-04T02:47:05.625Z,7.70
2022-12-04T02:49:39.016Z,7.80
2022-12-04T02:52:12.970Z,7.63
2022-12-04T02:54:46.772Z,8.55
2022-12-04T02:57:22.294Z,6.95
2022-12-04T02:59:54.718Z,7.88
2022-12-04T03:02:30.473Z,8.18
2022-12-04T03:05:04.209Z,7.68
2022-12-04T03:07:41.030Z,8.03
2022-12-04T03:10:16.375Z,7.28
2022-12-04T03:12:51.867Z,8.45
2022-12-04T03:15:27.839Z,8.73
2022-12-04T03:18:04.179Z,9.10
2022-12-04T03:20:35.816Z,7.90
2022-12-04T03:23:11.067Z,7.18
2022-12-04T03:25:55.216Z,7.30
2022-12-04T03:28:33.748Z,8.65
2022-12-04T03:31:09.114Z,8.30
2022-12-04T03:33:43.142Z,7.95
2022-12-04T03:36:20.389Z,7.88
2022-12-04T03:38:56.090Z,8.52
2022-12-04T03:41:30.434Z,8.73
2022-12-04T03:44:07.600Z,7.82
2022-12-04T03:46:42.185Z,7.72
2022-12-04T03:51:49.896Z,7.32
2022-12-04T03:54:23.548Z,9.18
2022-12-04T03:56:59.832Z,9.73
2022-12-04T03:59:36.534Z,8.50
2022-12-04T04:02:09.580Z,9.02
2022-12-04T04:04:40.750Z,7.80
2022-12-04T04:07:16.754Z,7.63
2022-12-04T04:09:50.498Z,8.07
2022-12-04T04:12:24.332Z,8.03
2022-12-04T04:15:15.632Z,7.40
2022-12-04T04:18:05.656Z,9.02
2022-12-04T04:20:59.251Z,8.35
2022-12-04T04:23:49.787Z,8.48
2022-12-04T04:26:19.323Z,7.82
2022-12-04T04:28:47.731Z,9.68
2022-12-04T04:31:31.784Z,8.80
2022-12-04T04:34:10.361Z,8.57
2022-12-04T04:36:51.102Z,7.65
2022-12-04T04:39:28.507Z,8.48
2022-12-04T04:42:04.412Z,7.70
2022-12-04T04:44:41.037Z,8.75
2022-12-04T04:47:17.530Z,9.57
2022-12-04T04:49:48.479Z,7.32
2022-12-04T04:52:19.571Z,8.45
2022-12-04T04:54:48.796Z,7.95
2022-12-04T04:57:28.848Z,6.90
2022-12-04T04:59:57.704Z,8.52
2022-12-04T05:02:27.858Z,9.30
2022-12-04T05:04:57.627Z,8.95
2022-12-04T05:07:26.110Z,8.93
2022-12-04T05:09:54.890Z,8.50
2022-12-04T05:12:23.688Z,7.40
2022-12-04T05:14:52.015Z,8.27
2022-12-04T05:17:20.525Z,9.63
2022-12-04T05:19:54.171Z,8.45
2022-12-04T05:22:27.176Z,8.52
2022-12-04T05:24:55.886Z,8.07
2022-12-04T05:27:26.771Z,7.03
2022-12-04T05:29:56.025Z,7.00
2022-12-04T05:32:28.175Z,7.22
2022-12-04T05:34:58.114Z,9.10
2022-12-04T05:37:28.174Z,7.72
2022-12-04T05:39:56.921Z,9.18
2022-12-04T05:42:25.314Z,7.80
2022-12-04T05:44:53.803Z,8.45
2022-12-04T05:47:22.303Z,8.63
2022-12-04T05:49:51.018Z,8.25
2022-12-04T05:52:19.522Z,7.88
2022-12-04T05:54:49.102Z,9.32
2022-12-04T05:57:18.737Z,8.30
2022-12-04T05:59:46.910Z,8.13
2022-12-04T06:02:15.433Z,8.65
2022-12-04T06:04:44.011Z,9.73
2022-12-04T06:07:12.884Z,8.05
2022-12-04T06:09:41.927Z,8.23
2022-12-04T06:12:11.550Z,9.25
2022-12-04T06:14:40.214Z,9.07
2022-12-04T06:17:08.982Z,9.15
2022-12-04T06:19:37.532Z,9.35
2022-12-04T06:22:06.143Z,8.35
2022-12-04T06:24:34.716Z,8.38
2022-12-04T06:29:52.902Z,7.43
2022-12-04T06:32:22.310Z,7.65
2022-12-04T06:34:53.419Z,7.93
2022-12-04T06:37:22.530Z,8.23
2022-12-04T06:39:51.331Z,9.00
2022-12-04T06:42:19.902Z,8.60
2022-12-04T06:44:48.353Z,6.70
2022-12-04T06:47:17.947Z,7.85
2022-12-04T06:49:49.680Z,9.90
2022-12-04T06:52:18.533Z,7.40
2022-12-04T06:54:46.727Z,7.88
2022-12-04T06:57:15.411Z,8.32
2022-12-04T06:59:43.897Z,9.15
2022-12-04T07:02:12.801Z,8.77
2022-12-04T07:04:42.418Z,8.02
2022-12-04T07:07:11.183Z,8.25
2022-12-04T07:09:40.044Z,9.20
2022-12-04T07:12:09.074Z,8.00
2022-12-04T07:14:37.595Z,7.40
2022-12-04T07:17:06.229Z,6.78
2022-12-04T07:19:34.812Z,7.63
2022-12-04T07:22:04.463Z,7.85
2022-12-04T07:24:32.714Z,7.20
2022-12-04T07:27:00.938Z,7.80
2022-12-04T07:29:29.437Z,7.65
2022-12-04T07:31:58.034Z,7.10
2022-12-04T07:34:26.665Z,8.30
2022-12-04T07:36:55.188Z,7.82
2022-12-04T07:39:25.026Z,7.57
2022-12-04T07:41:53.523Z,7.30
2022-12-04T07:44:22.047Z,7.85
2022-12-04T07:46:50.554Z,7.47
2022-12-04T07:49:19.072Z,8.38
2022-12-04T07:51:47.543Z,9.52
2022-12-04T07:54:15.722Z,9.90
2022-12-04T07:56:45.316Z,7.78
2022-12-04T07:59:13.816Z,8.32
2022-12-04T08:01:42.044Z,7.63
2022-12-04T08:04:12.780Z,7.95
2022-12-04T08:06:41.840Z,9.30
2022-12-04T08:09:10.605Z,8.05
2022-12-04T08:11:39.726Z,9.02
2022-12-04T08:14:13.420Z,7.80
2022-12-04T08:16:41.724Z,8.23
2022-12-04T08:19:09.916Z,6.47
2022-12-04T08:21:38.476Z,8.13
2022-12-04T08:24:07.506Z,9.32
2022-12-04T08:26:36.100Z,9.32
2022-12-04T08:29:06.875Z,9.88
2022-12-04T08:31:37.589Z,10.45
2022-12-04T08:34:08.376Z,8.60
2022-12-04T08:36:37.040Z,9.32
2022-12-04T08:39:06.111Z,10.70
2022-12-04T08:41:34.710Z,10.35
2022-12-04T08:44:03.259Z,9.75
2022-12-04T08:46:31.768Z,10.45
2022-12-04T08:49:01.427Z,9.93
2022-12-04T08:51:31.644Z,9.18
2022-12-04T08:54:04.939Z,12.25
2022-12-04T08:56:34.935Z,11.93
2022-12-04T08:59:04.120Z,9.90
2022-12-04T09:01:32.806Z,13.38
2022-12-04T09:04:02.549Z,12.48
2022-12-04T09:06:31.135Z,11.57
2022-12-04T09:08:59.403Z,11.40
2022-12-04T09:11:30.771Z,15.18
2022-12-04T09:13:59.415Z,12.65
2022-12-04T09:16:27.969Z,10.27
2022-12-04T09:18:57.430Z,8.90
2022-12-04T09:21:27.341Z,9.85
2022-12-04T09:23:55.883Z,10.77
2022-12-04T09:26:27.114Z,11.15
2022-12-04T09:28:57.076Z,10.35
2022-12-04T09:31:26.007Z,10.85
2022-12-04T09:33:54.806Z,11.52
2022-12-04T09:36:24.250Z,11.77
2022-12-04T09:38:55.577Z,11.35
2022-12-04T09:41:54.182Z,12.30
2022-12-04T09:44:28.988Z,11.25
2022-12-04T09:47:03.121Z,10.80
2022-12-04T09:49:38.029Z,9.45
2022-12-04T09:52:21.955Z,11.07
2022-12-04T09:54:53.968Z,10.27
2022-12-04T09:57:32.672Z,13.35
2022-12-04T10:00:05.537Z,10.90
2022-12-04T10:02:42.315Z,11.88
2022-12-04T10:05:21.546Z,10.48
2022-12-04T10:08:00.601Z,13.55
2022-12-04T10:10:39.891Z,11.38
2022-12-04T10:13:32.716Z,11.52
2022-12-04T10:16:09.060Z,10.98
2022-12-04T10:18:51.351Z,12.20
2022-12-04T10:21:42.721Z,10.98
2022-12-04T10:24:29.244Z,9.85
2022-12-04T10:27:02.694Z,10.02
2022-12-04T10:29:35.528Z,9.70
2022-12-04T10:32:17.027Z,10.73
2022-12-04T10:34:46.565Z,9.93
2022-12-04T10:37:16.438Z,10.65
2022-12-04T10:39:53.154Z,10.55
2022-12-04T10:42:32.128Z,9.00
2022-12-04T10:45:00.669Z,9.60
2022-12-04T10:47:29.338Z,10.02
2022-12-04T10:50:01.691Z,10.10
2022-12-04T10:52:30.315Z,8.70
2022-12-04T10:55:01.299Z,9.88
2022-12-04T10:57:43.002Z,9.68
2022-12-04T11:00:30.615Z,10.88
2022-12-04T11:03:02.668Z,9.88
2022-12-04T11:05:35.780Z,11.00
2022-12-04T11:08:07.550Z,9.38
2022-12-04T11:10:38.616Z,11.35
2022-12-04T11:13:16.967Z,11.05
2022-12-04T11:15:47.723Z,10.45
2022-12-04T11:18:21.052Z,10.40
2022-12-04T11:20:55.389Z,11.90
2022-12-04T11:23:24.241Z,10.35
2022-12-04T11:25:58.228Z,10.75
2022-12-04T11:28:42.550Z,10.52
2022-12-04T11:31:18.330Z,11.02
2022-12-04T11:33:50.900Z,10.23
2022-12-04T11:36:24.461Z,11.70
2022-12-04T11:38:54.368Z,12.32
2022-12-04T11:41:28.293Z,11.40
2022-12-04T11:44:00.548Z,10.45
2022-12-04T11:46:31.661Z,11.65
2022-12-04T11:49:02.901Z,12.30
2022-12-04T11:51:48.323Z,10.85
2022-12-04T11:54:27.594Z,10.57
2022-12-04T11:57:11.879Z,11.10
2022-12-04T11:59:56.775Z,11.98
2022-12-04T12:02:52.244Z,10.82
2022-12-04T12:05:53.623Z,10.98
2022-12-04T12:08:37.767Z,11.77
2022-12-04T12:11:17.263Z,11.18
2022-12-04T12:13:58.793Z,11.15
2022-12-04T12:16:40.910Z,11.38
2022-12-04T12:19:33.426Z,11.30
2022-12-04T12:22:12.512Z,12.00
2022-12-04T12:24:52.819Z,10.82
2022-12-04T12:27:43.970Z,12.02
2022-12-04T12:30:18.387Z,12.52
2022-12-04T12:33:05.907Z,11.02
2022-12-04T12:35:40.075Z,12.20
2022-12-04T12:38:14.974Z,12.38
2022-12-04T12:40:47.439Z,11.63
2022-12-04T12:43:22.911Z,13.27
2022-12-04T12:45:56.399Z,13.23
2022-12-04T12:48:31.391Z,11.43
2022-12-04T12:51:28.982Z,12.15
2022-12-04T12:54:01.232Z,13.15
2022-12-04T12:56:38.275Z,11.93
2022-12-04T12:59:13.598Z,12.63
2022-12-04T13:01:49.197Z,10.90
2022-12-04T13:04:26.277Z,13.93
2022-12-04T13:07:11.759Z,11.57
2022-12-04T13:09:47.343Z,12.82
2022-12-04T13:12:19.246Z,12.18
2022-12-04T13:14:49.285Z,14.05
2022-12-04T13:17:22.479Z,14.55
2022-12-04T13:19:56.014Z,12.55
2022-12-04T13:22:36.276Z,12.95
2022-12-04T13:25:42.876Z,12.93
2022-12-04T13:28:29.570Z,13.43
2022-12-04T13:31:11.434Z,13.88
2022-12-04T13:34:15.800Z,12.60
2022-12-04T13:37:16.079Z,11.57
2022-12-04T13:40:28.971Z,10.73
2022-12-04T13:43:18.721Z,12.45
2022-12-04T13:45:48.285Z,14.38
2022-12-04T13:48:30.456Z,13.73
2022-12-04T13:51:06.476Z,12.27
2022-12-04T13:53:40.301Z,13.75
2022-12-04T13:56:24.702Z,13.30
2022-12-04T13:59:02.573Z,12.55
2022-12-04T14:01:38.992Z,11.98
2022-12-04T14:04:08.117Z,10.65
2022-12-04T14:06:40.213Z,12.50
2022-12-04T14:09:23.439Z,12.70
2022-12-04T14:11:57.689Z,15.02
2022-12-04T14:14:30.230Z,12.00
2022-12-04T14:17:00.674Z,12.63
2022-12-04T14:19:34.933Z,13.23
2022-12-04T14:22:03.776Z,14.23
2022-12-04T14:24:39.058Z,15.07
2022-12-04T14:27:34.671Z,14.25
2022-12-04T14:30:05.088Z,13.50
2022-12-04T14:32:36.560Z,12.60
2022-12-04T14:35:05.915Z,12.05
2022-12-04T14:37:40.777Z,12.13
2022-12-04T14:40:21.709Z,13.25
2022-12-04T14:42:51.173Z,14.48
2022-12-04T14:45:30.124Z,13.32
2022-12-04T14:48:27.462Z,14.27
2022-12-04T14:51:05.705Z,14.48
2022-12-04T14:53:42.690Z,12.60
2022-12-04T14:56:45.633Z,12.95
2022-12-04T14:59:19.275Z,12.18
2022-12-04T15:01:50.315Z,12.30
2022-12-04T15:04:26.182Z,12.40
2022-12-04T15:07:00.138Z,12.95
2022-12-04T15:09:47.587Z,12.52
2022-12-04T15:12:36.402Z,10.68
2022-12-04T15:15:15.252Z,11.15
2022-12-04T15:17:43.841Z,12.45
2022-12-04T15:20:19.815Z,11.93
2022-12-04T15:22:48.967Z,12.52
2022-12-04T15:25:25.214Z,10.55
2022-12-04T15:28:03.861Z,12.20
2022-12-04T15:30:35.153Z,12.40
2022-12-04T15:33:03.885Z,13.07
2022-12-04T15:35:34.900Z,14.45
2022-12-04T15:38:04.061Z,16.33
2022-12-04T15:40:32.307Z,16.20
2022-12-04T15:43:18.539Z,13.52
2022-12-04T15:45:47.444Z,11.93
2022-12-04T15:48:26.433Z,12.70
2022-12-04T15:51:01.750Z,13.73
2022-12-04T15:53:33.896Z,12.88
2022-12-04T15:56:05.471Z,13.07
2022-12-04T15:58:37.519Z,11.98
2022-12-04T16:01:08.640Z,11.52
2022-12-04T16:03:47.651Z,12.50
2022-12-04T16:06:21.103Z,12.18
2022-12-04T16:08:52.737Z,12.75
2022-12-04T16:11:31.501Z,12.95
2022-12-04T16:14:22.470Z,13.60
2022-12-04T16:16:53.364Z,11.95
2022-12-04T16:19:32.548Z,12.05
2022-12-04T16:22:01.936Z,13.00
2022-12-04T16:24:30.639Z,14.68
2022-12-04T16:27:01.344Z,11.50
2022-12-04T16:29:31.437Z,12.10
2022-12-04T16:32:03.437Z,12.55
2022-12-04T16:34:32.914Z,11.45
2022-12-04T16:37:02.093Z,12.85
2022-12-04T16:39:30.646Z,13.05
2022-12-04T16:41:59.454Z,12.98
2022-12-04T16:44:27.675Z,12.18
2022-12-04T16:46:57.309Z,11.57
2022-12-04T16:49:25.926Z,13.93
2022-12-04T16:51:54.408Z,12.80
2022-12-04T16:54:22.632Z,11.88
2022-12-04T16:56:51.138Z,13.15
2022-12-04T16:59:19.665Z,12.13
2022-12-04T17:01:49.890Z,11.50
2022-12-04T17:04:20.427Z,11.88
2022-12-04T17:06:49.140Z,13.63
2022-12-04T17:09:17.705Z,11.90
2022-12-04T17:11:46.593Z,13.32
2022-12-04T17:14:15.118Z,13.05
2022-12-04T17:16:46.956Z,12.07
2022-12-04T17:19:15.561Z,14.48
2022-12-04T17:21:46.125Z,12.55
2022-12-04T17:24:14.417Z,13.18
2022-12-04T17:26:42.895Z,14.07
2022-12-04T17:29:11.505Z,14.60
2022-12-04T17:31:40.097Z,14.38
2022-12-04T17:34:08.713Z,14.60
2022-12-04T17:36:36.921Z,14.23
2022-12-04T17:39:07.985Z,12.52
2022-12-04T17:41:36.535Z,13.73
2022-12-04T17:44:04.918Z,13.55
2022-12-04T17:46:33.567Z,13.20
2022-12-04T17:49:06.801Z,13.52
2022-12-04T17:51:36.052Z,12.57
2022-12-04T17:54:06.467Z,13.02
2022-12-04T17:56:35.511Z,17.30
2022-12-04T17:59:04.588Z,13.75
2022-12-04T18:01:33.636Z,14.15
2022-12-04T18:04:04.498Z,12.30
2022-12-04T18:06:34.869Z,12.77
2022-12-04T18:09:04.039Z,12.93
2022-12-04T18:11:36.401Z,13.52
2022-12-04T18:14:12.346Z,13.60
2022-12-04T18:16:44.640Z,14.45
2022-12-04T18:19:14.945Z,13.45
2022-12-04T18:21:43.671Z,11.77
2022-12-04T18:24:12.584Z,13.40
2022-12-04T18:26:45.571Z,11.63
2022-12-04T18:29:17.666Z,13.18
2022-12-04T18:31:46.625Z,12.55
2022-12-04T18:34:15.891Z,12.32
2022-12-04T18:36:45.308Z,13.30
2022-12-04T18:39:16.817Z,17.60
2022-12-04T18:41:46.879Z,17.23
2022-12-04T18:44:15.459Z,15.05
2022-12-04T18:46:44.339Z,13.15
2022-12-04T18:49:13.127Z,14.73
2022-12-04T18:51:48.859Z,13.32
2022-12-04T18:54:21.671Z,14.38
2022-12-04T18:56:52.265Z,14.02
2022-12-04T18:59:22.827Z,13.05
2022-12-04T19:01:51.609Z,13.13
2022-12-04T19:04:22.019Z,13.68
2022-12-04T19:06:53.437Z,14.40
2022-12-04T19:09:40.774Z,14.45
2022-12-04T19:12:14.294Z,12.55
2022-12-04T19:14:42.791Z,14.18
2022-12-04T19:17:11.652Z,14.02
2022-12-04T19:19:40.198Z,14.00
2022-12-04T19:22:08.407Z,12.38
2022-12-04T19:24:36.928Z,13.32
2022-12-04T19:27:11.001Z,14.93
2022-12-04T19:29:42.797Z,15.73
2022-12-04T19:32:12.342Z,14.60
2022-12-04T19:34:41.246Z,14.82
2022-12-04T19:37:09.433Z,14.35
2022-12-04T19:39:38.128Z,14.65
2022-12-04T19:42:07.349Z,13.70
2022-12-04T19:44:51.735Z,16.55
2022-12-04T19:47:21.440Z,16.08
2022-12-04T19:49:50.177Z,14.95
2022-12-04T19:52:18.787Z,17.00
2022-12-04T19:54:47.644Z,20.20
2022-12-04T19:57:16.229Z,15.50
2022-12-04T19:59:46.795Z,17.83
2022-12-04T20:02:16.207Z,17.52
2022-12-04T20:04:46.194Z,16.73
2022-12-04T20:07:14.583Z,16.73
2022-12-04T20:09:48.728Z,15.07
2022-12-04T20:12:19.061Z,15.63
2022-12-04T20:14:47.591Z,16.52
2022-12-04T20:17:16.220Z,15.20
2022-12-04T20:19:45.923Z,14.75
2022-12-04T20:22:14.526Z,16.13
2022-12-04T20:24:43.029Z,15.63
2022-12-04T20:27:11.606Z,16.27
2022-12-04T20:29:40.194Z,14.65
2022-12-04T20:32:08.750Z,14.38
2022-12-04T20:34:43.100Z,14.80
2022-12-04T20:37:13.369Z,18.50
2022-12-04T20:39:41.950Z,14.43
2022-12-04T20:42:10.145Z,13.63
2022-12-04T20:44:38.664Z,14.88
2022-12-04T20:47:07.263Z,14.65
2022-12-04T20:49:35.777Z,13.80
2022-12-04T20:52:05.290Z,14.90
2022-12-04T20:54:41.236Z,15.77
2022-12-04T20:57:10.377Z,13.38
2022-12-04T20:59:39.056Z,13.88
2022-12-04T21:02:07.690Z,15.65
2022-12-04T21:04:38.810Z,13.48
2022-12-04T21:07:07.990Z,12.85
2022-12-04T21:09:37.831Z,15.95
2022-12-04T21:12:27.319Z,13.35
2022-12-04T21:15:13.697Z,13.85
2022-12-04T21:17:42.213Z,13.02
2022-12-04T21:20:11.846Z,12.75
2022-12-04T21:22:40.480Z,13.65
2022-12-04T21:25:10.561Z,14.35
2022-12-04T21:27:38.845Z,13.52
2022-12-04T21:30:09.074Z,14.43
2022-12-04T21:32:37.794Z,14.10
2022-12-04T21:35:06.919Z,13.55
2022-12-04T21:37:35.451Z,15.40
2022-12-04T21:40:04.612Z,15.00
2022-12-04T21:42:34.454Z,13.95
2022-12-04T21:45:05.915Z,13.63
2022-12-04T21:47:34.495Z,12.88
2022-12-04T21:50:02.814Z,16.25
2022-12-04T21:52:31.461Z,14.20
2022-12-04T21:54:59.965Z,13.35
2022-12-04T21:57:29.364Z,13.23
2022-12-04T21:59:59.339Z,13.73
2022-12-04T22:02:28.071Z,14.63
2022-12-04T22:04:56.370Z,14.73
2022-12-04T22:07:24.991Z,14.15
2022-12-04T22:09:53.534Z,13.48
2022-12-04T22:15:12.538Z,15.07
2022-12-04T22:17:41.352Z,14.90
2022-12-04T22:20:10.805Z,12.77
2022-12-04T22:22:39.315Z,14.13
2022-12-04T22:25:08.300Z,12.80
2022-12-04T22:27:37.011Z,14.40
2022-12-04T22:30:07.432Z,14.27
2022-12-04T22:32:37.269Z,13.77
2022-12-04T22:35:06.401Z,14.65
2022-12-04T22:37:35.842Z,13.93
2022-12-04T22:40:08.789Z,14.02
2022-12-04T22:42:37.362Z,12.65
2022-12-04T22:45:06.963Z,13.43
2022-12-04T22:47:36.606Z,13.27
2022-12-04T22:50:06.123Z,14.55
2022-12-04T22:52:34.809Z,14.93
2022-12-04T22:55:03.344Z,14.90
2022-12-04T22:57:31.872Z,15.88
2022-12-04T23:00:00.397Z,13.15
2022-12-04T23:02:28.906Z,13.88
2022-12-04T23:04:58.585Z,13.23
2022-12-04T23:07:27.196Z,13.90
2022-12-04T23:09:56.126Z,15.85
2022-12-04T23:12:25.347Z,13.13
2022-12-04T23:14:53.870Z,13.75
2022-12-04T23:17:23.017Z,12.82
2022-12-04T23:19:51.579Z,11.65
2022-12-04T23:22:21.235Z,14.85
2022-12-04T23:24:49.644Z,13.50
2022-12-04T23:27:18.209Z,13.63
2022-12-04T23:29:54.216Z,12.82
2022-12-04T23:32:22.981Z,14.90
2022-12-04T23:34:52.959Z,14.38
2022-12-04T23:37:22.619Z,14.02
2022-12-04T23:39:51.142Z,13.57
2022-12-04T23:42:19.694Z,13.02
2022-12-04T23:44:48.188Z,13.13
2022-12-04T23:47:16.865Z,14.98
2022-12-04T23:49:45.430Z,13.35
2022-12-04T23:52:14.050Z,13.85
2022-12-04T23:54:43.591Z,15.02
2022-12-04T23:57:12.101Z,14.23
2022-12-04T23:59:40.776Z,14.55
